GMMX/RAK METAR and TAF weather

Enter ICAO airport designator
Station Type Date Time Source
GMMX METAR 2019/05/26 01:00 UTC NOAA

GMMX 260100Z 02006KT CAVOK 22/10 Q1013 NOSIG


Station Type Date Time Source
GMMX Decoded METAR 2019/05/26 01:00 UTC NOAA

Marrakech, Morocco (GMMX) 31-37N 008-02W 466M
May 25, 2019 - 09:00 PM EDT / 2019.05.26 0100 UTC
Wind: from the NNE (020 degrees) at 7 MPH (6 KT):0
Visibility: greater than 7 mile(s):0
Temperature: 71 F (22 C)
Dew Point: 50 F (10 C)
Relative Humidity: 46%
Pressure (altimeter): 29.91 in. Hg (1013 hPa)
ob: GMMX 260100Z 02006KT CAVOK 22/10 Q1013 NOSIG
cycle: 1

Station Type Date Time Source
GMMX TAF 2019/05/25 18:16 UTC NOAA

TAF GMMX 251700Z 2518/2624 02006KT CAVOK
TEMPO 2519/2522 36012KT
TEMPO 2616/2621 36014KT SCT033

Example: see airport list